Rankings de siempre
Mejores tiempos personales válidos de atleta a través de todos los eventos y temporadas. Cada atleta aparece una vez por división.
Busca por nombre y abre la página donde está clasificado este récord de división.
14,087 atletas clasificados
Los finishers de HYROX ELITE 15 se rastrean por separado — ver la clasificación Elite.
| Pos. | Pos. AG | Atleta | Nacionalidad | Categoría de edad | TiempoMejor tiempo | Diferencia |
|---|---|---|---|---|---|---|
| 9226 | #628 | Vera MussillAUT · W 45-49 · AG #628 | AUT | W 45-49 | 1:36:39 | +40:16 |
| 9227 | #2548 | Teresa McNeilUSA · W 30-34 · AG #2548 | USA | W 30-34 | 1:36:39 | +40:16 |
| 9228 | #1026 | Ande McdonaldUSA · W 16-24 · AG #1026 | USA | W 16-24 | 1:36:39 | +40:16 |
| 9229 | #1239 | Sonja RomanSLO · W 40-44 · AG #1239 | SLO | W 40-44 | 1:36:39 | +40:16 |
| 9230 | #2549 | Juvy Amking CapistranoPHI · W 30-34 · AG #2549 | PHI | W 30-34 | 1:36:39 | +40:16 |
| 9231 | #2276 | Michelle GauslingGER · W 25-29 · AG #2276 | GER | W 25-29 | 1:36:40 | +40:17 |
| 9232 | #2550 | Marta CardinaliITA · W 30-34 · AG #2550 | ITA | W 30-34 | 1:36:40 | +40:17 |
| 9233 | #1882 | Iris DielemansNED · W 35-39 · AG #1882 | NED | W 35-39 | 1:36:40 | +40:17 |
| 9234 | #2551 | Susanna KirchgasserAUT · W 30-34 · AG #2551 | AUT | W 30-34 | 1:36:40 | +40:17 |
| 9235 | #1240 | Jennifer CulblaithNZL · W 40-44 · AG #1240 | NZL | W 40-44 | 1:36:40 | +40:17 |
| 9236 | #629 | Anne Deeken-UhleGER · W 45-49 · AG #629 | GER | W 45-49 | 1:36:41 | +40:18 |
| 9237 | #1883 | Sheridan Lucas MBEGBR · W 35-39 · AG #1883 | GBR | W 35-39 | 1:36:41 | +40:18 |
| 9238 | #1241 | Marilyn WalshIRL · W 40-44 · AG #1241 | IRL | W 40-44 | 1:36:41 | +40:18 |
| 9239 | #1028 | Signe MelchiorsenDEN · W 16-24 · AG #1028 | DEN | W 16-24 | 1:36:41 | +40:18 |
| 9240 | #1027 | Sofia GálvezCHI · W 16-24 · AG #1027 | CHI | W 16-24 | 1:36:41 | +40:18 |
| 9241 | #2277 | Daniela López EscuderoMEX · W 25-29 · AG #2277 | MEX | W 25-29 | 1:36:42 | +40:19 |
| 9242 | #2552 | Alexis CardewUSA · W 30-34 · AG #2552 | USA | W 30-34 | 1:36:42 | +40:19 |
| 9243 | #2278 | Annabel BartlettGBR · W 25-29 · AG #2278 | GBR | W 25-29 | 1:36:42 | +40:19 |
| 9244 | #2553 | Cherith FairbanksUSA · W 30-34 · AG #2553 | USA | W 30-34 | 1:36:42 | +40:19 |
| 9245 | #2279 | Lea Cathrin VolppGER · W 25-29 · AG #2279 | GER | W 25-29 | 1:36:42 | +40:19 |
| 9246 | #1030 | Nadine ZemminGER · W 16-24 · AG #1030 | GER | W 16-24 | 1:36:42 | +40:19 |
| 9247 | #1029 | Fabiènne Van WijkNED · W 16-24 · AG #1029 | NED | W 16-24 | 1:36:42 | +40:19 |
| 9248 | #1242 | Nathalie DengelFRA · W 40-44 · AG #1242 | FRA | W 40-44 | 1:36:42 | +40:19 |
| 9249 | #2280 | Britt Van De WijgertNED · W 25-29 · AG #2280 | NED | W 25-29 | 1:36:43 | +40:20 |
| 9250 | #1031 | Jade PackerGBR · W 16-24 · AG #1031 | GBR | W 16-24 | 1:36:43 | +40:20 |
Página 370 de 564